Latest Weather Observations for Ulladulla

IDN60801

Issued at 12:43 pm EDT Friday 4 December 2020 (issued every 10 minutes, with the page automatically refreshed every 10 minutes)

About weather observations | Map of weather stations | Latest weather observations for NSW | Other Formats
Station Details ID: 069138 Name: ULLADULLA AWS Lat: -35.36 Lon: 150.48 Height: 35.7 m
Data from the previous 72 hours. | See also: Recent months at Ulladulla
Date/Time
EDT
Temp
°C
App
Temp
°C
Dew
Point
°C
Rel
Hum
%
Delta-T
°C
Wind Press
QNH
hPa
Press
MSL
hPa
Rain since
9am
mm
Dir  Spd
km/h
Gust
km/h
Spd
kts
Gust
kts
04/12:30pm 21.8 22.8 17.8 78 2.5 NNE 9 13 5 7 1011.9 1011.8 0.0
04/12:00pm 21.8 22.1 17.0 74 2.9 NNE 11 15 6 8 1012.4 1012.3 0.0
04/11:30am 21.5 22.2 17.1 76 2.7 NE 9 13 5 7 1012.8 1012.7 0.0
04/11:00am 21.4 21.7 16.1 72 3.2 NE 9 13 5 7 1013.3 1013.2 0.0
04/10:30am 20.7 21.2 16.5 77 2.5 NE 9 13 5 7 1013.6 1013.5 0.0
04/10:00am 21.0 22.0 16.4 75 2.8 NE 6 9 3 5 1013.9 1013.8 0.0
04/09:30am 20.4 21.2 15.8 75 2.7 NE 6 7 3 4 1014.2 1014.1 0.0
04/09:00am 20.1 20.8 15.5 75 2.7 ENE 6 9 3 5 1014.6 1014.5 0.0
04/08:30am 19.4 20.2 15.9 80 2.1 S 6 7 3 4 1014.8 1014.7 0.0
04/08:00am 19.5 20.7 15.8 79 2.2 SSW 4 6 2 3 1014.8 1014.7 0.0
04/07:30am 19.1 20.0 16.0 82 1.8 SSW 6 7 3 4 1014.7 1014.6 0.0
04/07:00am 18.8 19.5 16.2 85 1.6 SSW 7 11 4 6 1014.6 1014.5 0.0
04/06:30am 17.9 19.2 16.1 89 1.1 SW 4 6 2 3 1014.5 1014.4 0.0
04/06:00am 16.6 17.1 15.0 90 0.9 WSW 6 6 3 3 1014.6 1014.5 0.0
04/05:30am 15.9 16.1 14.1 89 1.0 WSW 6 9 3 5 1014.4 1014.3 0.0
04/05:00am 16.0 16.1 14.0 88 1.1 WSW 6 9 3 5 1014.3 1014.2 0.0
04/04:30am 16.3 16.5 14.3 88 1.1 WSW 6 7 3 4 1014.6 1014.5 0.0
04/04:00am 16.7 17.2 14.9 89 1.0 SW 6 9 3 5 1014.6 1014.5 0.0
04/03:30am 16.4 16.7 14.4 88 1.1 WSW 6 7 3 4 1014.7 1014.6 0.0
04/03:00am 16.9 17.4 14.9 88 1.2 WSW 6 9 3 5 1014.8 1014.7 0.0
04/02:30am 17.3 17.7 15.3 88 1.2 SW 7 9 4 5 1014.7 1014.6 0.0
04/02:00am 17.6 18.0 15.4 87 1.3 WSW 7 9 4 5 1015.0 1014.9 0.0
04/01:30am 18.2 18.8 15.8 86 1.4 SW 7 13 4 7 1015.2 1015.1 0.0
04/01:00am 18.4 18.4 16.2 87 1.3 SW 11 15 6 8 1015.2 1015.1 0.0
04/12:30am 18.1 18.7 15.9 87 1.3 WSW 7 11 4 6 1015.4 1015.3 0.0
04/12:00am 18.6 19.5 16.2 86 1.4 NW 6 7 3 4 1015.7 1015.6 0.0
 
Date/Time
EDT
Temp
°C
App
Temp
°C
Dew
Point
°C
Rel
Hum
%
Delta-T
°C
Wind Press
QNH
hPa
Press
MSL
hPa
Rain since
9am
mm
Dir  Spd
km/h
Gust
km/h
Spd
kts
Gust
kts
03/11:30pm 18.6 19.5 16.2 86 1.4 NNW 6 7 3 4 1016.0 1015.9 0.0
03/11:00pm 19.1 20.2 16.5 85 1.6 N 6 9 3 5 1016.3 1016.2 0.0
03/10:30pm 19.2 20.1 16.6 85 1.6 N 7 13 4 7 1016.3 1016.2 0.0
03/10:00pm 19.4 20.0 16.8 85 1.6 N 9 15 5 8 1016.4 1016.3 0.0
03/09:30pm 19.5 18.4 17.3 87 1.3 N 19 26 10 14 1016.0 1015.9 0.0
03/09:00pm 19.3 20.6 17.1 87 1.3 N 6 13 3 7 1015.6 1015.5 0.0
03/08:30pm 19.5 18.3 17.1 86 1.5 NE 19 33 10 18 1015.4 1015.3 0.0
03/08:00pm 19.5 20.5 16.9 85 1.6 NNE 7 13 4 7 1015.1 1015.0 0.0
03/07:30pm 19.7 20.0 17.1 85 1.6 NE 11 20 6 11 1015.2 1015.1 0.0
03/07:00pm 20.2 20.1 17.0 82 1.9 NNE 13 24 7 13 1015.2 1015.1 0.0
03/06:30pm 20.2 19.7 16.8 81 2.1 NE 15 26 8 14 1015.4 1015.3 0.0
03/06:00pm 20.4 19.4 16.6 79 2.3 NE 17 26 9 14 1015.3 1015.2 0.0
03/05:30pm 20.3 18.4 16.7 80 2.2 NE 22 35 12 19 1015.5 1015.4 0.0
03/05:00pm 20.5 16.8 16.9 80 2.2 NE 32 46 17 25 1015.9 1015.8 0.0
03/04:30pm 20.1 14.8 16.3 79 2.3 NE 39 50 21 27 1016.5 1016.4 0.0
03/04:00pm 20.4 16.9 16.4 78 2.4 NE 30 37 16 20 1017.1 1017.0 0.0
03/03:30pm 20.8 19.8 16.6 77 2.5 NE 17 28 9 15 1017.4 1017.3 0.0
03/03:00pm 20.8 20.5 16.4 76 2.7 NE 13 22 7 12 1017.9 1017.8 0.0
03/02:30pm 20.8 21.3 16.6 77 2.5 NNE 9 17 5 9 1018.5 1018.4 0.0
03/02:00pm 20.2 20.3 16.4 79 2.3 N 11 24 6 13 1019.0 1018.9 0.0
03/01:30pm 19.7 19.7 16.3 81 2.0 NNE 11 20 6 11 1019.5 1019.4 0.0
03/01:00pm 18.8 18.8 15.1 79 2.2 NE 9 15 5 8 1020.1 1020.0 0.0
03/12:30pm 18.6 18.4 14.7 78 2.3 NE 9 13 5 7 1020.9 1020.8 0.0
03/12:00pm 18.1 18.7 14.2 78 2.2 NE 4 6 2 3 1021.4 1021.3 0.0
03/11:30am 18.5 18.6 14.0 75 2.6 NE 6 9 3 5 1021.9 1021.8 0.0
03/11:00am 18.2 18.6 13.7 75 2.6 NE 4 6 2 3 1022.3 1022.2 0.0
03/10:30am 17.7 17.6 13.4 76 2.4 NE 6 11 3 6 1022.3 1022.2 0.0
03/10:00am 17.9 18.0 13.8 77 2.3 NE 6 9 3 5 1022.5 1022.4 0.0
03/09:30am 17.6 17.2 12.9 74 2.6 N 7 11 4 6 1022.7 1022.6 0.0
03/09:00am 17.7 17.4 12.8 73 2.7 NNE 6 7 3 4 1022.8 1022.7 0.0
03/08:30am 17.6 17.3 12.7 73 2.7 NNE 6 9 3 5 1022.8 1022.7 0.0
03/08:00am 17.3 17.4 12.6 74 2.6 NNE 4 6 2 3 1023.2 1023.1 0.0
03/07:30am 16.8 16.3 12.1 74 2.6 NNE 6 9 3 5 1023.2 1023.1 0.0
03/07:00am 16.3 16.3 12.3 77 2.2 NNE 4 6 2 3 1023.2 1023.1 0.0
03/06:30am 16.0 16.1 12.6 80 1.9 NE 4 7 2 4 1023.2 1023.1 0.0
03/06:00am 15.8 16.2 12.4 80 1.9 NE 2 4 1 2 1022.9 1022.8 0.0
03/05:30am 15.7 15.7 12.3 80 1.9 NE 4 6 2 3 1022.7 1022.6 0.0
03/05:00am 15.8 15.7 12.2 79 2.0 NE 4 7 2 4 1022.8 1022.7 0.0
03/04:30am 16.4 16.6 11.8 74 2.5 NE 2 6 1 3 1022.8 1022.7 0.0
03/04:00am 16.6 15.9 11.5 72 2.8 NE 6 13 3 7 1023.0 1022.9 0.0
03/03:30am 16.5 15.7 11.6 73 2.7 NE 7 9 4 5 1023.2 1023.1 0.0
03/03:00am 16.4 15.9 12.0 75 2.4 NE 6 9 3 5 1023.7 1023.6 0.0
03/02:30am 16.1 16.4 12.1 77 2.2 NNW 2 6 1 3 1024.0 1023.9 0.0
03/02:00am 15.7 15.7 12.3 80 1.9 NNW 4 7 2 4 1024.3 1024.2 0.0
03/01:30am 15.8 16.6 12.4 80 1.9 CALM 0 4 0 2 1024.7 1024.6 0.0
03/01:00am 15.7 16.1 12.5 81 1.8 N 2 6 1 3 1025.4 1025.4 0.0
03/12:30am 15.4 15.0 12.5 83 1.6 WNW 6 9 3 5 1025.9 1025.8 0.0
03/12:00am 15.4 15.5 12.7 84 1.5 NW 4 7 2 4 1026.3 1026.2 0.0
 
Date/Time
EDT
Temp
°C
App
Temp
°C
Dew
Point
°C
Rel
Hum
%
Delta-T
°C
Wind Press
QNH
hPa
Press
MSL
hPa
Rain since
9am
mm
Dir  Spd
km/h
Gust
km/h
Spd
kts
Gust
kts
02/11:30pm 15.7 15.2 11.9 78 2.1 WSW 6 9 3 5 1026.5 1026.4 0.0
02/11:00pm 16.3 16.0 11.5 73 2.6 E 4 9 2 5 1026.7 1026.6 0.0
02/10:30pm 16.5 16.2 11.4 72 2.8 ESE 4 7 2 4 1026.5 1026.4 0.0
02/10:00pm 16.4 15.8 11.8 74 2.5 SE 6 11 3 6 1026.1 1026.0 0.0
02/09:30pm 16.3 16.0 11.5 73 2.6 SSE 4 9 2 5 1025.5 1025.5 0.0
02/09:00pm 16.2 15.9 11.6 74 2.5 S 4 9 2 5 1025.2 1025.2 0.0
02/08:30pm 16.3 16.0 11.5 73 2.6 ESE 4 9 2 5 1024.7 1024.6 0.0
02/08:00pm 16.3 15.0 11.2 72 2.7 ESE 9 17 5 9 1024.5 1024.4 0.0
02/07:30pm 16.2 15.1 11.8 75 2.4 SE 9 20 5 11 1023.9 1023.8 0.0
02/07:00pm 16.5 15.5 12.3 76 2.3 SE 9 20 5 11 1023.7 1023.6 0.0
02/06:30pm 16.8 15.4 12.1 74 2.6 SE 11 22 6 12 1023.2 1023.1 0.0
02/06:00pm 17.5 16.3 11.5 68 3.3 SE 9 19 5 10 1022.8 1022.7 0.0
02/05:30pm 18.0 17.4 11.8 67 3.4 ESE 6 13 3 7 1022.3 1022.2 0.0
02/05:00pm 18.0 17.1 11.3 65 3.6 ESE 7 15 4 8 1022.2 1022.1 0.0
02/04:30pm 18.1 16.8 11.4 65 3.7 ESE 9 15 5 8 1021.8 1021.7 0.0
02/04:00pm 18.2 16.9 11.3 64 3.7 SE 9 17 5 9 1021.4 1021.3 0.0
02/03:30pm 18.8 18.1 11.9 64 3.8 SE 7 13 4 7 1021.2 1021.1 0.0
02/03:00pm 18.7 17.6 11.8 64 3.8 SE 9 15 5 8 1020.9 1020.8 0.0
02/02:30pm 18.7 17.5 11.5 63 3.9 ESE 9 15 5 8 1020.8 1020.7 0.0
02/02:00pm 18.8 17.6 11.6 63 3.9 SE 9 15 5 8 1020.4 1020.3 0.0
02/01:30pm 19.1 17.9 11.7 62 4.1 SE 9 17 5 9 1020.3 1020.2 0.0
02/01:00pm 19.1 18.0 12.1 64 3.9 SE 9 17 5 9 1020.3 1020.2 0.0
02/12:30pm 19.1 18.0 12.1 64 3.9 ESE 9 17 5 9 1020.3 1020.2 0.0
02/12:00pm 19.2 18.3 12.5 65 3.7 ESE 9 15 5 8 1020.1 1020.0 0.0
02/11:30am 19.9 18.7 12.9 64 4.0 SE 11 17 6 9 1020.1 1020.0 0.0
02/11:00am 19.9 19.3 13.4 66 3.7 E 9 15 5 8 1020.0 1019.9 0.0
02/10:30am 19.0 18.9 13.2 69 3.3 E 6 9 3 5 1019.9 1019.8 0.0
02/10:00am 18.3 18.2 13.4 73 2.8 SE 6 9 3 5 1019.7 1019.6 0.0
02/09:30am 18.2 18.2 13.5 74 2.7 ESE 6 9 3 5 1019.6 1019.5 0.0
02/09:00am 18.3 18.4 13.8 75 2.6 SSE 6 11 3 6 1019.4 1019.3 0.0
02/08:30am 18.0 18.5 13.9 77 2.3 ESE 4 9 2 5 1019.0 1018.9 0.0
02/08:00am 17.8 17.6 13.5 76 2.4 SSE 7 13 4 7 1018.5 1018.4 0.0
02/07:30am 17.7 17.4 13.2 75 2.5 E 7 13 4 7 1018.0 1017.9 0.0
02/07:00am 17.9 17.8 13.2 74 2.6 SSE 6 9 3 5 1017.2 1017.1 0.0
02/06:30am 18.0 17.2 12.9 72 2.9 SE 9 19 5 10 1016.6 1016.5 0.0
02/06:00am 18.2 17.9 13.3 73 2.8 SE 7 13 4 7 1016.1 1016.0 0.0
02/05:30am 18.2 17.2 13.3 73 2.8 SSE 11 17 6 9 1015.4 1015.3 0.0
02/05:00am 18.2 17.4 14.1 77 2.4 SSE 11 17 6 9 1014.9 1014.8 0.0
02/04:30am 18.3 16.3 14.0 76 2.5 SSE 17 22 9 12 1014.4 1014.3 0.0
02/04:00am 18.3 16.3 14.0 76 2.5 SSE 17 22 9 12 1014.0 1013.9 0.0
02/03:30am 18.4 16.0 14.3 77 2.4 S 20 26 11 14 1013.8 1013.7 0.0
02/03:00am 18.4 15.7 14.5 78 2.3 S 22 28 12 15 1013.6 1013.5 0.0
02/02:30am 18.4 14.5 14.5 78 2.3 S 28 37 15 20 1013.2 1013.1 0.0
02/02:00am 18.5 14.7 14.6 78 2.3 S 28 37 15 20 1013.3 1013.2 0.0
02/01:30am 18.6 15.0 15.3 81 1.9 S 28 39 15 21 1012.9 1012.8 0.0
02/01:00am 18.8 15.6 15.3 80 2.1 S 26 39 14 21 1012.7 1012.6 0.0
02/12:30am 19.1 14.5 16.0 82 1.8 S 35 46 19 25 1012.3 1012.2 0.0
02/12:17am 19.1 15.0 16.0 82 1.8 SSW 32 52 17 28 1012.0 1011.9 0.0
02/12:00am 19.3 15.4 16.9 86 1.5 S 33 48 18 26 1011.6 1011.5 0.0
 
Date/Time
EDT
Temp
°C
App
Temp
°C
Dew
Point
°C
Rel
Hum
%
Delta-T
°C
Wind Press
QNH
hPa
Press
MSL
hPa
Rain since
9am
mm
Dir  Spd
km/h
Gust
km/h
Spd
kts
Gust
kts
01/11:34pm 20.5 16.7 18.1 86 1.5 SSW 35 56 19 30 1010.1 1010.0 0.0
01/11:30pm 20.7 16.9 18.1 85 1.6 SSW 35 52 19 28 1010.0 1009.9 0.0
01/11:19pm 21.2 18.2 17.8 81 2.1 SSW 30 50 16 27 1009.5 1009.4 0.0
01/11:00pm 23.7 22.8 17.7 69 3.7 SSW 19 30 10 16 1008.9 1008.8 0.0
01/10:30pm 28.0 28.6 16.9 51 6.9 NW 9 17 5 9 1007.3 1007.2 0.0
01/10:20pm 28.4 28.7 17.9 53 6.7 NW 13 20 7 11 1006.7 1006.6 0.0
01/10:00pm 23.4 25.1 19.3 78 2.6 NNW 9 15 5 8 1006.2 1006.1 0.0
01/09:30pm 21.9 23.3 19.5 86 1.5 N 11 17 6 9 1005.3 1005.2 0.0
01/09:00pm 21.3 22.2 18.5 84 1.8 NNE 11 20 6 11 1004.6 1004.5 0.0
01/08:30pm 22.3 23.1 19.1 82 2.0 NNW 13 19 7 10 1004.7 1004.6 0.0
01/08:00pm 23.7 24.7 18.6 73 3.2 N 11 15 6 8 1004.8 1004.7 0.0
01/07:30pm 24.0 24.9 19.3 75 3.0 NNE 13 26 7 14 1004.7 1004.6 0.0
01/07:00pm 24.7 27.5 20.4 77 2.8 WNW 6 9 3 5 1004.5 1004.4 0.0
01/06:30pm 22.8 24.1 19.4 81 2.2 N 11 17 6 9 1003.3 1003.2 0.0
01/06:00pm 21.2 20.4 18.4 84 1.8 NE 20 43 11 23 1003.1 1003.0 0.0
01/05:30pm 21.9 22.8 18.3 80 2.3 NE 11 24 6 13 1003.6 1003.5 0.0
01/05:00pm 22.2 20.5 18.2 78 2.5 NE 24 43 13 23 1003.5 1003.4 0.0
01/04:30pm 22.7 21.2 18.5 77 2.6 NE 24 43 13 23 1003.6 1003.5 0.0
01/04:15pm 22.7 19.9 18.3 76 2.8 NE 30 50 16 27 1003.2 1003.1 0.0
01/04:00pm 22.8 20.4 18.3 76 2.8 NE 28 43 15 23 1003.3 1003.2 0.0
01/03:30pm 22.3 18.9 18.1 77 2.6 NE 33 46 18 25 1003.8 1003.7 0.0
01/03:00pm 22.2 18.7 18.0 77 2.6 NE 33 44 18 24 1004.6 1004.5 0.0
01/02:30pm 21.9 17.6 17.7 77 2.6 NNE 37 48 20 26 1005.0 1004.9 0.0
01/02:00pm 22.0 19.5 18.0 78 2.5 NNE 28 41 15 22 1006.0 1005.9 0.0
01/01:30pm 21.9 18.5 17.7 77 2.6 NNE 32 48 17 26 1006.1 1006.0 0.0
01/01:00pm 21.9 17.8 17.3 75 2.8 NE 35 46 19 25 1006.7 1006.6 0.0

Other formats

Comma delimited format used in spreadsheet applications
http://www.bom.gov.au/fwo/IDN60801/IDN60801.94938.axf

JavaScript Object Notation format (JSON) in row-major order
http://www.bom.gov.au/fwo/IDN60801/IDN60801.94938.json

Data quality

Most of these data are generated automatically and are frequently updated. Quality checks on data are not normally performed. It is possible for incorrect values to appear. Refer to information at About Latest Weather Observations and please check the disclaimer before using these data.